Time;durP1;ratioP1;P1;durP2;ratioP2;P2;SDS_P1;SDS_P2;PMS_P1;PMS_P2;Temp;Humidity;BMP_temperature;BMP_pressure;BME280_temperature;BME280_humidity;BME280_pressure;Samples;Min_cycle;Max_cycle;Signal;HPM_P1;HPM_P2
2024/01/29 00:02:02;;;;;;;12.95;5.07;;;15.10;99.90;;;;;;10510284;28;20466;-60
2024/01/29 00:07:04;;;;;;;6.97;5.00;;;14.70;99.90;;;;;;10508859;28;20107;-58
2024/01/29 00:12:07;;;;;;;7.25;4.68;;;14.60;99.90;;;;;;10507432;28;20486;-58
2024/01/29 00:17:10;;;;;;;6.10;4.38;;;14.80;99.90;;;;;;10509339;28;20242;-58
2024/01/29 00:22:12;;;;;;;5.72;3.92;;;14.80;99.90;;;;;;10510673;28;20458;-58
2024/01/29 00:27:15;;;;;;;9.80;5.13;;;14.70;99.90;;;;;;10523547;28;20051;-57
2024/01/29 00:32:17;;;;;;;9.50;5.00;;;14.40;99.90;;;;;;10522314;27;20056;-58
2024/01/29 00:37:19;;;;;;;7.53;4.13;;;14.50;99.90;;;;;;10530516;28;20083;-58
2024/01/29 00:42:22;;;;;;;9.33;4.53;;;14.80;99.90;;;;;;10515204;28;21138;-59
2024/01/29 00:47:24;;;;;;;8.68;5.03;;;14.80;99.90;;;;;;10520442;28;20475;-60
2024/01/29 00:52:26;;;;;;;7.23;3.97;;;14.60;99.90;;;;;;10521048;28;20047;-58
2024/01/29 00:57:30;;;;;;;8.23;4.87;;;14.80;99.90;;;;;;10520854;28;20142;-59
2024/01/29 01:02:32;;;;;;;5.18;3.75;;;14.60;99.90;;;;;;10526910;28;20152;-58
2024/01/29 01:07:33;;;;;;;7.23;4.60;;;14.70;99.90;;;;;;10521669;28;20052;-59
2024/01/29 01:12:37;;;;;;;8.90;4.70;;;14.50;99.90;;;;;;10523687;27;20044;-59
2024/01/29 01:17:40;;;;;;;8.50;4.68;;;14.50;99.90;;;;;;10521032;28;20142;-57
2024/01/29 01:22:42;;;;;;;;;;;14.60;99.90;;;;;;10522694;28;20089;-59
2024/01/29 01:27:45;;;;;;;7.20;4.50;;;14.60;99.90;;;;;;10509442;28;20370;-58
2024/01/29 01:32:47;;;;;;;7.75;4.55;;;14.70;99.90;;;;;;10523013;28;20040;-59
2024/01/29 01:37:49;;;;;;;9.07;4.63;;;14.60;99.90;;;;;;10522897;28;20048;-55
2024/01/29 01:42:53;;;;;;;6.07;4.57;;;14.70;99.90;;;;;;10516516;28;20052;-59
2024/01/29 01:47:55;;;;;;;6.85;3.35;;;14.40;99.90;;;;;;10517822;28;20070;-57
2024/01/29 01:52:57;;;;;;;8.18;3.75;;;14.70;99.90;;;;;;10520480;28;20085;-56
2024/01/29 01:58:01;;;;;;;6.72;4.07;;;14.50;99.90;;;;;;10525213;28;20195;-58
2024/01/29 02:03:03;;;;;;;6.93;4.28;;;14.30;99.90;;;;;;10521186;28;23173;-58
2024/01/29 02:08:06;;;;;;;8.25;4.88;;;14.30;99.90;;;;;;10524766;28;20158;-58
2024/01/29 02:13:12;;;;;;;7.32;4.88;;;14.10;99.90;;;;;;10521804;28;20142;-59
2024/01/29 02:18:15;;;;;;;10.48;5.57;;;14.20;99.90;;;;;;10524331;28;20036;-58
2024/01/29 02:23:18;;;;;;;10.15;4.82;;;13.80;99.90;;;;;;10514333;28;20055;-58
2024/01/29 02:28:23;;;;;;;11.32;5.97;;;13.60;99.90;;;;;;10521832;28;20504;-58
2024/01/29 02:33:25;;;;;;;7.47;5.47;;;13.50;99.90;;;;;;10524710;28;20625;-59
2024/01/29 02:38:28;;;;;;;8.40;5.27;;;13.30;99.90;;;;;;10520683;28;20055;-58
2024/01/29 02:43:30;;;;;;;7.38;5.32;;;13.50;99.90;;;;;;10525645;28;20466;-59
2024/01/29 02:48:32;;;;;;;8.20;5.23;;;13.90;99.90;;;;;;10519045;28;20048;-59
2024/01/29 02:53:35;;;;;;;8.93;4.00;;;13.70;99.90;;;;;;10527645;28;20550;-59
2024/01/29 02:58:37;;;;;;;8.60;4.80;;;14.20;99.90;;;;;;10523322;28;20051;-59
2024/01/29 03:03:39;;;;;;;5.37;4.40;;;14.70;99.90;;;;;;10524594;28;20050;-58
2024/01/29 03:08:45;;;;;;;8.40;5.57;;;14.40;99.90;;;;;;10523215;28;20444;-58
2024/01/29 03:13:47;;;;;;;8.40;5.25;;;13.40;99.90;;;;;;10519437;28;20884;-59
2024/01/29 03:18:49;;;;;;;;;;;13.40;99.90;;;;;;10525921;28;23693;-58
2024/01/29 03:23:53;;;;;;;6.38;5.28;;;13.20;99.90;;;;;;10516568;28;22576;-57
2024/01/29 03:28:55;;;;;;;9.10;5.40;;;13.20;99.90;;;;;;10527277;28;20073;-56
2024/01/29 03:33:57;;;;;;;9.18;5.65;;;13.60;99.90;;;;;;10528971;28;20182;-55
2024/01/29 03:39:00;;;;;;;8.53;5.43;;;13.50;99.90;;;;;;10533534;28;20091;-56
2024/01/29 03:44:02;;;;;;;10.43;5.55;;;13.20;99.90;;;;;;10521304;28;20497;-59
2024/01/29 03:49:04;;;;;;;7.43;4.23;;;13.60;99.90;;;;;;10521945;28;20044;-55
2024/01/29 03:54:08;;;;;;;9.05;5.25;;;13.70;99.90;;;;;;10515472;28;20489;-57
2024/01/29 04:15:31;;;;;;;7.32;4.40;;;13.90;99.90;;;;;;10500977;27;22125;-58
2024/01/29 04:20:33;;;;;;;8.35;4.82;;;13.80;99.90;;;;;;10507865;28;20717;-58
2024/01/29 04:25:35;;;;;;;6.17;4.63;;;13.70;99.90;;;;;;10507601;28;20059;-59
2024/01/29 04:30:39;;;;;;;7.17;3.73;;;14.40;99.90;;;;;;10492656;28;21255;-57
2024/01/29 04:35:41;;;;;;;10.25;6.00;;;14.00;99.90;;;;;;10512010;28;21150;-59
2024/01/29 04:40:43;;;;;;;7.10;5.20;;;14.10;99.90;;;;;;10508747;28;20817;-58
2024/01/29 04:45:46;;;;;;;7.93;4.88;;;14.10;99.90;;;;;;10515163;28;20698;-59
2024/01/29 04:50:48;;;;;;;6.72;5.15;;;13.90;99.90;;;;;;10505007;28;20056;-58
2024/01/29 04:55:50;;;;;;;11.93;6.27;;;13.60;99.90;;;;;;10509220;28;20097;-58
2024/01/29 05:00:54;;;;;;;8.67;5.67;;;13.40;99.90;;;;;;10512620;28;20048;-58
2024/01/29 05:05:56;;;;;;;8.68;5.63;;;13.10;99.90;;;;;;10500941;28;20051;-58
2024/01/29 05:10:58;;;;;;;7.57;5.85;;;13.40;99.90;;;;;;10499086;28;20523;-58
2024/01/29 05:16:01;;;;;;;8.67;5.53;;;12.50;99.90;;;;;;10506772;28;20056;-58
2024/01/29 05:21:04;;;;;;;7.78;5.90;;;13.30;99.90;;;;;;10508523;28;20495;-58
2024/01/29 05:26:06;;;;;;;6.88;4.95;;;13.30;99.90;;;;;;10482903;28;20423;-58
2024/01/29 05:31:09;;;;;;;7.22;5.45;;;13.50;99.90;;;;;;10467339;28;20059;-58
2024/01/29 05:36:13;;;;;;;5.32;4.25;;;14.20;99.90;;;;;;10478344;28;20778;-59
2024/01/29 05:41:15;;;;;;;6.15;4.68;;;14.10;99.90;;;;;;10471768;28;20053;-59
2024/01/29 05:46:19;;;;;;;6.47;5.17;;;14.20;99.90;;;;;;10468975;28;20056;-57
2024/01/29 05:51:21;;;;;;;7.97;4.93;;;14.30;99.90;;;;;;10474869;28;20486;-59
2024/01/29 05:56:23;;;;;;;7.07;4.68;;;14.50;99.90;;;;;;10470476;28;20044;-60
2024/01/29 06:01:26;;;;;;;7.40;5.50;;;14.60;99.90;;;;;;10481637;28;20115;-58
2024/01/29 06:06:28;;;;;;;6.43;4.90;;;14.60;99.90;;;;;;10454035;28;20520;-57
2024/01/29 06:11:30;;;;;;;8.48;5.70;;;14.40;99.90;;;;;;10477699;28;20052;-59
2024/01/29 06:16:33;;;;;;;10.33;5.77;;;14.40;99.90;;;;;;10470126;28;20129;-57
2024/01/29 06:21:35;;;;;;;9.25;5.40;;;14.40;99.90;;;;;;10465720;28;20478;-58
2024/01/29 06:26:38;;;;;;;9.07;6.70;;;14.50;99.90;;;;;;10477001;28;20655;-59
2024/01/29 06:31:42;;;;;;;11.20;5.60;;;14.30;99.90;;;;;;10473493;28;20102;-58
2024/01/29 06:36:44;;;;;;;3.97;3.17;;;14.40;99.90;;;;;;10475745;28;20080;-57
2024/01/29 06:41:45;;;;;;;7.00;4.77;;;14.90;99.90;;;;;;10474758;28;20055;-57
2024/01/29 06:46:49;;;;;;;8.27;4.27;;;14.80;99.90;;;;;;10459636;28;20147;-59
2024/01/29 06:51:51;;;;;;;10.55;5.15;;;15.00;99.90;;;;;;10473513;28;20051;-59
2024/01/29 06:56:53;;;;;;;6.85;4.95;;;15.00;99.90;;;;;;10469566;28;20483;-57
2024/01/29 07:02:00;;;;;;;6.53;5.28;;;14.80;99.90;;;;;;10461920;28;20618;-59
2024/01/29 07:07:02;;;;;;;9.48;5.85;;;14.90;99.90;;;;;;10460926;28;20044;-58
2024/01/29 07:12:04;;;;;;;7.93;6.17;;;14.50;99.90;;;;;;10472204;28;20056;-57
2024/01/29 07:17:08;;;;;;;9.95;6.38;;;14.20;99.90;;;;;;10470412;28;21211;-58
2024/01/29 07:22:14;;;;;;;6.63;5.15;;;14.10;99.90;;;;;;10455147;28;20060;-57
2024/01/29 07:27:16;;;;;;;21.23;5.72;;;14.10;99.90;;;;;;10463071;28;20063;-57
2024/01/29 07:32:19;;;;;;;9.90;6.37;;;14.20;99.90;;;;;;10461551;28;20047;-56
2024/01/29 07:37:21;;;;;;;10.13;6.28;;;14.50;99.90;;;;;;10458922;28;20094;-57
2024/01/29 07:42:23;;;;;;;7.73;4.70;;;14.50;99.90;;;;;;10465640;28;20821;-59
2024/01/29 07:47:26;;;;;;;7.60;4.88;;;14.50;99.90;;;;;;10456703;28;20093;-58
2024/01/29 07:52:28;;;;;;;7.88;5.32;;;14.60;99.90;;;;;;10468182;28;20079;-57
2024/01/29 07:57:30;;;;;;;8.73;5.87;;;14.30;99.90;;;;;;10455446;28;20040;-58
2024/01/29 08:02:34;;;;;;;9.90;6.40;;;14.00;99.90;;;;;;10456385;28;20082;-58
2024/01/29 08:07:37;;;;;;;11.68;6.60;;;14.00;99.90;;;;;;10458989;28;20092;-56
2024/01/29 08:12:39;;;;;;;9.35;5.35;;;14.40;99.90;;;;;;10452006;28;20056;-58
2024/01/29 08:17:43;;;;;;;14.23;6.53;;;14.30;99.90;;;;;;10467860;28;20055;-58
2024/01/29 08:22:45;;;;;;;5.95;4.75;;;14.40;99.90;;;;;;10464435;28;20106;-56
2024/01/29 08:27:47;;;;;;;12.27;7.10;;;14.80;99.90;;;;;;10448591;28;20056;-58
2024/01/29 08:32:50;;;;;;;7.43;5.37;;;14.40;99.90;;;;;;10448979;28;20040;-58
2024/01/29 08:37:52;;;;;;;15.52;6.32;;;15.00;99.90;;;;;;10456948;28;21267;-56
2024/01/29 08:42:54;;;;;;;7.17;3.60;;;14.90;99.90;;;;;;10464932;28;20048;-52
2024/01/29 08:47:58;;;;;;;13.30;6.80;;;15.00;99.90;;;;;;10470235;28;20059;-56
2024/01/29 08:53:00;;;;;;;12.48;5.57;;;14.60;99.90;;;;;;10452264;28;20052;-56
2024/01/29 08:58:03;;;;;;;8.50;4.35;;;14.80;99.90;;;;;;10473237;28;20426;-56
2024/01/29 09:03:06;;;;;;;7.80;5.82;;;14.90;99.90;;;;;;10461823;28;20060;-57
2024/01/29 09:08:09;;;;;;;12.63;6.50;;;15.00;99.90;;;;;;10463204;28;20057;-58
2024/01/29 09:13:11;;;;;;;12.80;6.90;;;14.20;99.90;;;;;;10455750;28;20142;-58
2024/01/29 09:18:15;;;;;;;9.82;5.20;;;14.40;99.90;;;;;;10449802;28;20618;-59
2024/01/29 09:23:17;;;;;;;9.85;5.32;;;14.70;99.90;;;;;;10448519;28;20596;-57
2024/01/29 09:28:19;;;;;;;9.90;6.97;;;14.80;99.90;;;;;;10462966;28;20554;-57
2024/01/29 09:33:22;;;;;;;12.23;7.47;;;14.50;99.90;;;;;;10461815;28;20056;-56
2024/01/29 09:38:24;;;;;;;14.18;7.00;;;14.50;99.90;;;;;;10439456;28;20057;-59
2024/01/29 09:43:27;;;;;;;14.80;7.63;;;14.90;99.90;;;;;;10467297;28;20040;-59
2024/01/29 09:48:34;;;;;;;12.35;6.65;;;14.40;99.90;;;;;;10456636;28;20048;-59
2024/01/29 09:53:37;;;;;;;10.57;5.70;;;14.90;99.90;;;;;;10456262;28;20064;-58
2024/01/29 09:58:39;;;;;;;13.23;6.95;;;14.80;99.90;;;;;;10459674;28;20906;-58
2024/01/29 10:03:43;;;;;;;13.17;6.87;;;14.70;99.90;;;;;;10451725;28;20057;-57
2024/01/29 10:08:46;;;;;;;10.73;8.25;;;14.40;99.90;;;;;;10456773;28;20056;-57
2024/01/29 10:13:48;;;;;;;14.00;8.70;;;13.10;99.90;;;;;;10457689;28;20161;-58
2024/01/29 10:18:58;;;;;;;11.68;7.55;;;13.30;99.90;;;;;;10449926;28;20063;-59
2024/01/29 10:24:00;;;;;;;14.63;8.35;;;14.40;99.90;;;;;;10456238;28;20522;-56
2024/01/29 10:29:04;;;;;;;18.73;10.10;;;14.20;99.90;;;;;;10454606;28;20060;-59
2024/01/29 10:34:07;;;;;;;16.15;9.15;;;14.10;99.90;;;;;;10453235;28;20173;-57
2024/01/29 10:39:13;;;;;;;19.25;10.52;;;14.50;99.90;;;;;;10452324;28;20071;-58
2024/01/29 10:44:19;;;;;;;17.92;8.55;;;14.10;99.90;;;;;;10444491;28;20172;-58
2024/01/29 10:49:24;;;;;;;22.20;10.80;;;14.20;99.90;;;;;;10459757;28;20051;-56
2024/01/29 10:54:26;;;;;;;27.83;11.68;;;14.70;99.90;;;;;;10457495;28;20058;-56
2024/01/29 10:59:29;;;;;;;;;;;14.80;99.90;;;;;;10450046;28;20057;-58
2024/01/29 11:04:32;;;;;;;30.93;15.40;;;15.10;99.90;;;;;;10451928;28;19925;-59
2024/01/29 11:09:35;;;;;;;22.95;12.23;;;14.90;99.90;;;;;;10444154;28;20501;-56
2024/01/29 11:14:37;;;;;;;33.17;12.43;;;14.80;99.90;;;;;;10455357;28;20164;-58
2024/01/29 11:19:43;;;;;;;31.20;13.40;;;15.20;99.90;;;;;;10441763;28;20114;-58
2024/01/29 11:24:45;;;;;;;28.92;13.70;;;14.40;99.90;;;;;;10450113;28;20073;-57
2024/01/29 11:29:48;;;;;;;25.45;14.20;;;14.80;99.90;;;;;;10452347;28;20052;-58
2024/01/29 11:34:56;;;;;;;21.95;13.70;;;14.50;99.90;;;;;;10452645;28;20455;-59
2024/01/29 11:39:58;;;;;;;17.25;11.45;;;12.80;99.90;;;;;;10460138;28;20052;-58
2024/01/29 11:45:01;;;;;;;16.38;9.82;;;13.40;99.90;;;;;;10453843;28;20309;-57
2024/01/29 11:50:05;;;;;;;15.57;11.52;;;13.70;99.90;;;;;;10468684;28;20060;-58
2024/01/29 11:55:07;;;;;;;21.67;11.25;;;14.00;99.90;;;;;;10457560;28;20045;-57
2024/01/29 12:00:10;;;;;;;13.93;8.63;;;12.90;99.90;;;;;;10458111;28;20496;-59
2024/01/29 12:05:15;;;;;;;16.00;9.95;;;13.90;99.90;;;;;;10460821;28;20057;-56
2024/01/29 12:10:17;;;;;;;16.80;9.07;;;13.40;99.90;;;;;;10443564;28;20171;-58
2024/01/29 12:15:19;;;;;;;16.52;9.95;;;13.10;99.90;;;;;;10459608;28;20507;-56
2024/01/29 12:20:23;;;;;;;14.03;9.00;;;13.60;99.90;;;;;;10457252;28;20071;-58
2024/01/29 12:25:25;;;;;;;15.35;8.52;;;14.30;99.90;;;;;;10452239;28;20147;-57
2024/01/29 12:30:27;;;;;;;11.63;6.67;;;14.90;99.90;;;;;;10453605;28;20044;-58
2024/01/29 12:35:34;;;;;;;15.00;10.03;;;15.50;99.90;;;;;;10460226;28;20444;-56
2024/01/29 12:40:37;;;;;;;11.15;7.18;;;15.00;99.90;;;;;;10468180;28;20105;-57
2024/01/29 12:45:41;;;;;;;10.73;7.25;;;15.30;99.90;;;;;;10456565;28;20448;-61
2024/01/29 12:50:45;;;;;;;11.68;7.53;;;15.10;99.90;;;;;;10463453;28;20119;-59
2024/01/29 12:55:47;;;;;;;15.57;8.07;;;15.30;99.90;;;;;;10466364;28;20104;-60
2024/01/29 13:00:51;;;;;;;10.63;6.25;;;15.40;99.90;;;;;;10459695;28;20129;-58
2024/01/29 13:05:56;;;;;;;13.90;7.88;;;15.80;99.90;;;;;;10460487;28;20428;-58
2024/01/29 13:10:59;;;;;;;13.55;8.23;;;15.70;99.90;;;;;;10462957;28;20943;-58
2024/01/29 13:16:01;;;;;;;10.98;8.38;;;16.10;99.90;;;;;;10470262;28;20094;-59
2024/01/29 13:21:04;;;;;;;12.27;8.10;;;16.20;99.90;;;;;;10469221;28;20150;-58
2024/01/29 13:26:08;;;;;;;10.80;7.07;;;16.20;99.90;;;;;;10463818;28;20079;-58
2024/01/29 13:31:09;;;;;;;13.00;7.85;;;16.20;99.90;;;;;;10458762;28;20099;-59
2024/01/29 13:36:13;;;;;;;13.47;7.13;;;16.50;99.90;;;;;;10452150;28;20458;-57
2024/01/29 13:41:15;;;;;;;11.55;8.18;;;16.50;99.90;;;;;;10464144;28;20080;-59
2024/01/29 13:46:18;;;;;;;9.63;5.30;;;16.50;99.90;;;;;;10463952;28;20173;-59
2024/01/29 13:51:21;;;;;;;12.35;8.75;;;16.50;99.90;;;;;;10456008;28;20475;-58
2024/01/29 13:56:23;;;;;;;18.35;8.80;;;16.50;99.90;;;;;;10447762;28;20420;-59
2024/01/29 14:01:25;;;;;;;11.65;8.32;;;16.60;99.90;;;;;;10472554;28;20040;-59
2024/01/29 14:06:28;;;;;;;11.27;7.93;;;17.10;99.90;;;;;;10475521;28;20051;-57
2024/01/29 14:11:30;;;;;;;11.27;6.28;;;17.20;99.90;;;;;;10413520;28;20579;-60
2024/01/29 14:16:32;;;;;;;14.57;8.53;;;17.40;99.90;;;;;;10422912;28;20041;-59
2024/01/29 14:21:36;;;;;;;11.18;6.97;;;17.60;99.90;;;;;;10457240;28;20470;-58
2024/01/29 14:26:40;;;;;;;13.13;8.07;;;17.60;99.90;;;;;;10470524;28;20048;-59
2024/01/29 14:31:44;;;;;;;11.68;8.63;;;17.70;99.90;;;;;;10431682;28;20052;-57
2024/01/29 14:36:47;;;;;;;10.95;7.30;;;17.40;99.90;;;;;;10429016;28;20396;-59
2024/01/29 14:41:49;;;;;;;11.38;8.23;;;17.80;99.90;;;;;;10469077;28;20056;-60
2024/01/29 14:46:51;;;;;;;;;;;17.90;99.90;;;;;;10465369;28;20051;-58
2024/01/29 14:51:54;;;;;;;11.88;8.20;;;18.00;99.90;;;;;;10466281;28;19936;-60
2024/01/29 14:56:56;;;;;;;18.05;9.23;;;18.10;99.90;;;;;;10458501;28;20047;-60
2024/01/29 15:01:59;;;;;;;16.40;8.38;;;17.40;99.90;;;;;;10462494;28;20059;-60
2024/01/29 15:07:03;;;;;;;11.70;8.00;;;18.20;99.90;;;;;;10451534;28;20083;-59
2024/01/29 15:12:06;;;;;;;11.45;7.78;;;18.60;99.90;;;;;;10460299;28;20092;-59
2024/01/29 15:17:07;;;;;;;11.82;7.97;;;18.40;99.90;;;;;;10460395;28;20868;-58
2024/01/29 15:22:11;;;;;;;10.55;7.00;;;18.60;99.90;;;;;;10460806;28;20879;-59
2024/01/29 15:27:13;;;;;;;11.82;6.22;;;18.90;99.90;;;;;;10454963;28;20060;-58
2024/01/29 15:32:15;;;;;;;18.13;8.57;;;19.00;99.90;;;;;;10452013;28;20106;-59
2024/01/29 15:37:20;;;;;;;13.75;8.00;;;18.90;99.90;;;;;;10457770;28;20082;-59
2024/01/29 15:42:27;;;;;;;10.43;8.07;;;19.00;99.90;;;;;;10459114;28;20064;-57
2024/01/29 15:47:30;;;;;;;15.38;6.78;;;18.90;99.90;;;;;;10458944;28;20093;-60
2024/01/29 15:52:33;;;;;;;;;;;18.90;99.90;;;;;;10449848;28;20088;-59
2024/01/29 15:57:35;;;;;;;10.85;5.90;;;18.80;99.90;;;;;;10450622;28;20571;-59
2024/01/29 16:02:37;;;;;;;13.27;6.57;;;18.80;99.90;;;;;;10456227;28;20142;-60
2024/01/29 16:07:42;;;;;;;8.35;4.32;;;18.80;99.90;;;;;;10452743;28;20048;-59
2024/01/29 16:12:45;;;;;;;9.68;5.10;;;18.70;99.90;;;;;;10460008;28;20091;-57
2024/01/29 16:17:47;;;;;;;11.80;6.50;;;18.60;99.90;;;;;;10463401;28;20105;-58
2024/01/29 16:22:50;;;;;;;10.75;5.97;;;18.60;99.90;;;;;;10451879;28;20735;-60
2024/01/29 16:27:52;;;;;;;15.48;5.63;;;18.40;99.90;;;;;;10455845;28;20559;-59
2024/01/29 16:32:55;;;;;;;9.32;5.03;;;18.30;99.90;;;;;;10459706;28;20624;-58
2024/01/29 16:37:58;;;;;;;;;;;18.20;99.90;;;;;;10459777;28;20061;-58
2024/01/29 16:43:00;;;;;;;20.75;7.22;;;18.10;99.90;;;;;;10466089;28;19931;-57
2024/01/29 16:48:02;;;;;;;13.32;7.78;;;18.20;99.90;;;;;;10464666;28;20845;-62
2024/01/29 16:53:05;;;;;;;15.20;5.25;;;18.00;99.90;;;;;;10453955;28;20053;-58
2024/01/29 16:58:07;;;;;;;14.93;8.48;;;17.90;99.90;;;;;;10466666;28;20079;-59
2024/01/29 17:03:09;;;;;;;18.15;9.73;;;17.70;99.90;;;;;;10460940;28;20775;-59
2024/01/29 17:08:15;;;;;;;11.70;7.10;;;17.40;99.90;;;;;;10467367;28;20047;-60
2024/01/29 17:13:19;;;;;;;12.00;8.93;;;17.40;99.90;;;;;;10457265;28;20054;-58
2024/01/29 17:18:21;;;;;;;10.85;6.68;;;17.20;99.90;;;;;;10468978;28;20140;-57
2024/01/29 17:23:26;;;;;;;15.27;8.10;;;17.30;99.90;;;;;;10473738;28;20170;-60
2024/01/29 17:28:28;;;;;;;13.30;7.50;;;17.30;99.90;;;;;;10462631;28;20052;-59
2024/01/29 17:33:30;;;;;;;12.65;7.88;;;17.20;99.90;;;;;;10463401;28;20059;-59
2024/01/29 17:38:34;;;;;;;12.82;8.30;;;17.00;99.90;;;;;;10466516;28;20061;-63
2024/01/29 17:43:36;;;;;;;13.73;9.50;;;16.70;99.90;;;;;;10454918;28;20044;-59
2024/01/29 17:48:38;;;;;;;15.63;8.00;;;16.70;99.90;;;;;;10461210;28;20151;-59
2024/01/29 17:53:43;;;;;;;17.00;10.50;;;16.80;99.90;;;;;;10457498;28;20174;-58
2024/01/29 17:58:46;;;;;;;16.95;9.15;;;16.60;99.90;;;;;;10462353;28;20483;-58
2024/01/29 18:03:48;;;;;;;8.93;6.78;;;16.20;99.90;;;;;;10458682;28;20048;-65
2024/01/29 18:14:50;;;;;;;15.40;10.00;;;16.20;99.90;;;;;;10418673;28;20040;-55
2024/01/29 18:19:54;;;;;;;12.00;8.32;;;16.40;99.90;;;;;;10452230;28;20044;-56
2024/01/29 18:24:56;;;;;;;18.15;7.97;;;16.50;99.90;;;;;;10453658;28;20048;-55
2024/01/29 18:29:59;;;;;;;17.42;7.20;;;16.60;99.90;;;;;;10458124;28;20048;-57
2024/01/29 18:35:01;;;;;;;9.90;6.43;;;16.60;99.90;;;;;;10435962;28;20073;-58
2024/01/29 18:40:04;;;;;;;14.45;7.28;;;16.30;99.90;;;;;;10422995;28;20057;-59
2024/01/29 18:45:08;;;;;;;;;;;16.70;99.90;;;;;;10422866;28;20046;-60
2024/01/29 18:50:10;;;;;;;12.90;8.13;;;16.70;99.90;;;;;;10421904;28;20721;-58
2024/01/29 18:55:12;;;;;;;9.85;6.97;;;16.40;99.90;;;;;;10424388;28;20091;-58
2024/01/29 19:00:17;;;;;;;15.52;9.18;;;16.40;99.90;;;;;;10422745;28;20131;-58
2024/01/29 19:05:20;;;;;;;12.52;8.88;;;16.10;99.90;;;;;;10425998;28;20394;-58
2024/01/29 19:10:22;;;;;;;18.00;8.32;;;16.00;99.90;;;;;;10417662;28;20054;-58
2024/01/29 19:15:25;;;;;;;12.30;8.38;;;15.80;99.90;;;;;;10418052;28;20061;-57
2024/01/29 19:20:28;;;;;;;17.67;8.38;;;15.40;99.90;;;;;;10411252;28;20064;-59
2024/01/29 19:25:32;;;;;;;12.38;7.30;;;16.00;99.90;;;;;;10415461;28;20380;-56
2024/01/29 19:30:36;;;;;;;21.73;8.68;;;16.00;99.90;;;;;;10413081;28;20851;-56
2024/01/29 19:35:38;;;;;;;14.95;9.35;;;16.20;99.90;;;;;;10417268;28;20858;-59
2024/01/29 19:40:40;;;;;;;14.00;8.48;;;15.50;99.90;;;;;;10412222;28;20048;-57
2024/01/29 19:45:44;;;;;;;14.52;8.40;;;16.10;99.90;;;;;;10412490;28;20412;-59
2024/01/29 19:50:46;;;;;;;15.18;7.50;;;15.80;99.90;;;;;;10418315;28;20041;-56
2024/01/29 19:55:48;;;;;;;11.13;6.68;;;15.70;99.90;;;;;;10415005;28;20060;-56
2024/01/29 20:00:51;;;;;;;11.73;6.27;;;16.30;99.90;;;;;;10413240;28;20893;-59
2024/01/29 20:05:54;;;;;;;9.90;8.05;;;16.50;99.90;;;;;;10405853;28;20079;-56
2024/01/29 20:10:56;;;;;;;;;;;16.30;99.90;;;;;;10405762;28;20049;-57
2024/01/29 20:16:02;;;;;;;13.00;8.00;;;16.50;99.90;;;;;;10410862;28;19924;-58
2024/01/29 20:21:06;;;;;;;16.58;6.63;;;16.30;99.90;;;;;;10413351;28;20595;-58
2024/01/29 20:26:08;;;;;;;10.48;6.57;;;16.30;99.90;;;;;;10420787;28;20097;-58
2024/01/29 20:31:21;;;;;;;10.85;6.43;;;16.50;99.90;;;;;;10416942;28;20153;-58
2024/01/29 20:36:24;;;;;;;13.02;7.18;;;16.70;99.90;;;;;;10407568;28;20096;-58
2024/01/29 20:41:26;;;;;;;;;;;16.80;99.90;;;;;;10419383;28;20045;-59
2024/01/29 20:46:31;;;;;;;9.77;6.83;;;16.90;99.90;;;;;;10413027;28;19955;-58
2024/01/29 20:51:33;;;;;;;8.85;5.97;;;16.90;99.90;;;;;;10415833;28;20048;-57
2024/01/29 20:56:35;;;;;;;12.25;7.38;;;17.00;99.90;;;;;;10416769;28;20102;-58
2024/01/29 21:01:38;;;;;;;11.00;7.43;;;16.90;99.90;;;;;;10419493;28;20260;-58
2024/01/29 21:06:40;;;;;;;12.90;7.03;;;16.80;99.90;;;;;;10417720;28;20087;-58
2024/01/29 21:11:43;;;;;;;10.87;8.10;;;16.20;99.90;;;;;;10418216;28;20055;-59
2024/01/29 21:16:46;;;;;;;11.23;7.03;;;16.20;99.90;;;;;;10421413;28;20606;-60
2024/01/29 21:21:48;;;;;;;15.45;8.50;;;16.00;99.90;;;;;;10419788;28;20176;-60
2024/01/29 21:26:50;;;;;;;16.00;7.47;;;15.80;99.90;;;;;;10423001;28;20045;-58
2024/01/29 21:31:54;;;;;;;17.65;9.18;;;15.80;99.90;;;;;;10418433;28;20083;-58
2024/01/29 21:36:57;;;;;;;16.67;9.63;;;15.00;99.90;;;;;;10414759;28;22566;-58
2024/01/29 21:41:59;;;;;;;11.68;7.50;;;14.40;99.90;;;;;;10428847;28;20069;-58
2024/01/29 21:47:03;;;;;;;19.27;9.37;;;15.30;99.90;;;;;;10420924;28;20083;-55
2024/01/29 21:52:05;;;;;;;13.63;8.57;;;14.90;99.90;;;;;;10427753;28;20151;-54
2024/01/29 21:57:07;;;;;;;11.70;6.85;;;15.10;99.90;;;;;;10429053;28;20128;-58
2024/01/29 22:02:10;;;;;;;14.30;9.23;;;15.50;99.90;;;;;;10436358;28;20052;-59
2024/01/29 22:07:13;;;;;;;10.93;6.38;;;15.70;99.90;;;;;;10417352;28;20049;-57
2024/01/29 22:12:16;;;;;;;11.70;6.90;;;15.70;99.90;;;;;;10428977;28;20653;-57
2024/01/29 22:17:19;;;;;;;10.02;6.78;;;16.20;99.90;;;;;;10417313;28;20077;-57
2024/01/29 22:22:21;;;;;;;13.80;7.82;;;16.40;99.90;;;;;;10424299;28;20061;-58
2024/01/29 22:27:23;;;;;;;13.50;8.43;;;16.10;99.90;;;;;;10430837;28;20064;-57
2024/01/29 22:32:26;;;;;;;11.80;8.20;;;16.20;99.90;;;;;;10431728;28;20467;-58
2024/01/29 22:37:28;;;;;;;11.98;7.50;;;16.10;99.90;;;;;;10434147;28;20586;-57
2024/01/29 22:42:31;;;;;;;10.43;5.83;;;16.40;99.90;;;;;;10423021;28;20140;-59
2024/01/29 22:47:34;;;;;;;11.68;7.97;;;16.50;99.90;;;;;;10421673;28;20528;-59
2024/01/29 22:52:37;;;;;;;11.00;6.38;;;16.40;99.90;;;;;;10430589;28;20049;-59
2024/01/29 22:57:38;;;;;;;10.48;6.30;;;16.50;99.90;;;;;;10433646;28;20971;-61
2024/01/29 23:02:42;;;;;;;10.13;6.57;;;16.70;99.90;;;;;;10430434;28;20110;-56
2024/01/29 23:07:44;;;;;;;10.68;6.85;;;16.60;99.90;;;;;;10438430;28;20585;-56
2024/01/29 23:12:46;;;;;;;13.93;7.38;;;16.70;99.90;;;;;;10432730;28;20512;-58
2024/01/29 23:17:49;;;;;;;11.17;6.50;;;16.50;99.90;;;;;;10421693;28;20745;-60
2024/01/29 23:22:52;;;;;;;8.15;6.38;;;16.50;99.90;;;;;;10424177;28;20047;-59
2024/01/29 23:27:54;;;;;;;13.10;7.55;;;16.60;99.90;;;;;;10429606;28;20044;-58
2024/01/29 23:32:57;;;;;;;14.30;7.37;;;16.60;99.90;;;;;;10420771;28;20056;-58
2024/01/29 23:37:59;;;;;;;9.48;5.40;;;16.50;99.90;;;;;;10422651;28;20685;-61
2024/01/29 23:43:01;;;;;;;12.95;6.82;;;16.70;99.90;;;;;;10427054;28;20053;-58
2024/01/29 23:48:05;;;;;;;9.77;6.20;;;16.60;99.90;;;;;;10423753;28;20044;-58
2024/01/29 23:53:07;;;;;;;10.43;6.32;;;16.50;99.90;;;;;;10430496;28;20139;-57
2024/01/29 23:58:09;;;;;;;9.03;5.13;;;16.30;99.90;;;;;;10430910;28;20060;-58
